Time;durP1;ratioP1;P1;durP2;ratioP2;P2;SDS_P1;SDS_P2;PMS_P1;PMS_P2;Temp;Humidity;BMP_temperature;BMP_pressure;BME280_temperature;BME280_humidity;BME280_pressure;Samples;Min_cycle;Max_cycle;Signal;HPM_P1;HPM_P2
2023/03/31 00:02:12;;;;;;;4.63;4.03;;;7.60;99.90;;;8.26;100.00;97351.63;5234086;28;20295;-66
2023/03/31 00:04:51;;;;;;;5.17;3.70;;;7.60;99.90;;;8.35;100.00;97341.94;5233254;28;20299;-67
2023/03/31 00:07:25;;;;;;;4.37;3.97;;;7.60;99.90;;;8.27;100.00;97335.53;5232597;28;20536;-67
2023/03/31 00:10:00;;;;;;;4.37;3.40;;;7.50;99.90;;;8.34;100.00;97335.09;5230125;28;20670;-67
2023/03/31 00:12:50;;;;;;;4.47;3.57;;;7.50;99.90;;;8.25;100.00;97334.59;5234854;28;20242;-65
2023/03/31 00:15:23;;;;;;;4.37;3.07;;;7.50;99.90;;;8.32;100.00;97329.03;5229157;28;20248;-67
2023/03/31 00:17:59;;;;;;;4.30;3.20;;;7.50;99.90;;;8.20;100.00;97320.72;5234682;28;20300;-65
2023/03/31 00:20:36;;;;;;;6.13;3.47;;;7.40;99.90;;;7.95;100.00;97319.28;5236925;28;20204;-67
2023/03/31 00:23:13;;;;;;;3.87;3.33;;;7.30;99.90;;;8.01;100.00;97317.13;5225582;28;20239;-67
2023/03/31 00:25:47;;;;;;;5.40;3.13;;;7.30;99.90;;;8.05;100.00;97306.31;5230672;28;20220;-67
2023/03/31 00:28:21;;;;;;;4.07;3.40;;;7.40;99.90;;;8.15;100.00;97301.75;5225811;28;20220;-63
2023/03/31 00:31:00;;;;;;;3.47;3.17;;;7.40;99.90;;;8.24;100.00;97305.72;5231673;28;20295;-66
2023/03/31 00:33:33;;;;;;;4.17;3.27;;;7.40;99.90;;;8.38;100.00;97306.47;5235654;28;20194;-67
2023/03/31 00:36:08;;;;;;;3.97;3.57;;;7.50;99.90;;;8.07;100.00;97299.66;5231857;28;20196;-67
2023/03/31 00:38:44;;;;;;;5.30;3.57;;;7.40;99.90;;;8.01;100.00;97290.78;5231167;28;20556;-65
2023/03/31 00:41:19;;;;;;;5.80;3.40;;;7.40;99.90;;;8.05;100.00;97290.19;5226513;28;20639;-68
2023/03/31 00:44:09;;;;;;;4.67;3.47;;;7.40;99.90;;;8.11;100.00;97276.13;5240407;28;20239;-67
2023/03/31 00:46:49;;;;;;;6.17;3.97;;;7.40;99.90;;;8.10;100.00;97271.84;5232251;28;20204;-68
2023/03/31 00:49:29;;;;;;;3.80;3.33;;;7.40;99.90;;;8.11;100.00;97271.03;5225763;28;20217;-67
2023/03/31 00:52:07;;;;;;;4.10;3.30;;;7.40;99.90;;;8.17;100.00;97267.09;5232210;28;20287;-67
2023/03/31 00:54:42;;;;;;;6.43;3.47;;;7.40;99.90;;;8.17;100.00;97259.44;5237288;28;20220;-67
2023/03/31 00:57:17;;;;;;;5.00;3.57;;;7.50;99.90;;;8.13;100.00;97254.19;5226462;28;20640;-67
2023/03/31 00:59:54;;;;;;;5.77;3.47;;;7.50;99.90;;;8.27;100.00;97264.25;5230769;28;20193;-66
2023/03/31 01:02:28;;;;;;;4.90;3.40;;;7.50;99.90;;;8.28;100.00;97254.16;5229555;28;20192;-67
2023/03/31 01:05:02;;;;;;;6.60;3.90;;;7.50;99.90;;;8.29;100.00;97255.91;5230352;28;20943;-67
2023/03/31 01:07:41;;;;;;;6.23;3.60;;;7.70;99.90;;;8.36;100.00;97246.97;5231019;28;20224;-66
2023/03/31 01:10:14;;;;;;;5.37;3.33;;;7.70;99.90;;;8.41;100.00;97248.09;5232465;28;20243;-67
2023/03/31 01:12:51;;;;;;;5.77;3.17;;;7.70;99.90;;;8.48;100.00;97242.56;5230649;28;20208;-65
2023/03/31 01:15:25;;;;;;;4.63;3.23;;;7.80;99.90;;;8.47;100.00;97250.13;5231507;28;20226;-67
2023/03/31 01:17:59;;;;;;;4.10;3.17;;;7.80;99.90;;;8.52;100.00;97236.84;5240131;28;20204;-67
2023/03/31 01:20:56;;;;;;;5.13;3.60;;;7.80;99.90;;;8.56;100.00;97238.78;5241268;28;20686;-67
2023/03/31 01:23:58;;;;;;;4.77;3.13;;;7.90;99.90;;;8.49;100.00;97234.13;5239425;28;20193;-66
2023/03/31 01:26:54;;;;;;;4.20;3.57;;;7.80;99.90;;;8.53;100.00;97227.56;5237583;28;20667;-67
2023/03/31 01:29:55;;;;;;;4.00;3.10;;;7.90;99.90;;;8.60;100.00;97219.44;5231571;28;20223;-67
2023/03/31 01:33:02;;;;;;;4.07;3.30;;;7.90;99.90;;;8.75;100.00;97221.94;5227395;28;20387;-66
2023/03/31 01:36:13;;;;;;;7.10;3.40;;;8.00;99.90;;;8.74;100.00;97215.09;5231907;28;20239;-68
2023/03/31 01:39:22;;;;;;;3.70;3.40;;;8.00;99.90;;;9.05;100.00;97212.50;5230951;28;20663;-66
2023/03/31 01:42:02;;;;;;;4.53;3.50;;;8.30;99.90;;;8.83;100.00;97200.28;5227276;28;20205;-67
2023/03/31 01:44:45;;;;;;;4.03;3.40;;;8.20;99.90;;;8.85;100.00;97185.09;5239406;28;20224;-67
2023/03/31 01:47:27;;;;;;;5.47;3.23;;;8.10;99.90;;;8.82;100.00;97196.00;5232080;28;20291;-68
2023/03/31 01:50:06;;;;;;;5.33;3.43;;;8.10;99.90;;;8.76;100.00;97194.00;5236554;28;20225;-68
2023/03/31 01:52:47;;;;;;;3.10;2.90;;;8.00;99.90;;;8.72;100.00;97186.97;5231627;28;20295;-67
2023/03/31 01:55:26;;;;;;;4.13;3.13;;;8.00;99.90;;;8.72;100.00;97184.44;5230076;28;20226;-67
2023/03/31 01:58:07;;;;;;;4.23;3.13;;;8.00;99.90;;;8.75;100.00;97168.44;5236629;28;20197;-68
2023/03/31 02:00:45;;;;;;;7.27;3.27;;;8.00;99.90;;;8.77;100.00;97179.59;5235138;28;20189;-66
2023/03/31 02:03:25;;;;;;;5.83;3.60;;;8.00;99.90;;;8.67;100.00;97183.31;5242516;28;20224;-67
2023/03/31 02:06:07;;;;;;;6.10;4.17;;;7.90;99.90;;;8.42;100.00;97186.22;5236003;28;20571;-66
2023/03/31 02:08:44;;;;;;;4.37;3.67;;;7.80;99.90;;;8.41;100.00;97169.16;5232162;28;20224;-66
2023/03/31 02:11:18;;;;;;;5.10;3.33;;;7.70;99.90;;;8.46;100.00;97165.22;5235537;28;20662;-67
2023/03/31 02:13:55;;;;;;;4.37;3.30;;;7.80;99.90;;;8.54;100.00;97173.28;5228010;28;20197;-67
2023/03/31 02:16:32;;;;;;;4.20;3.73;;;7.90;99.90;;;8.58;100.00;97175.16;5231890;28;20209;-66
2023/03/31 02:19:07;;;;;;;4.50;3.50;;;7.90;99.90;;;8.68;100.00;97174.00;5238196;28;20284;-68
2023/03/31 02:21:41;;;;;;;4.43;3.40;;;8.00;99.90;;;8.72;100.00;97175.91;5231490;28;20191;-68
2023/03/31 02:24:16;;;;;;;5.07;3.50;;;8.00;99.90;;;8.82;100.00;97178.16;5230272;28;20240;-67
2023/03/31 02:26:54;;;;;;;4.23;3.83;;;8.10;99.90;;;8.83;100.00;97179.03;5228682;28;20629;-67
2023/03/31 02:29:29;;;;;;;4.97;3.40;;;8.10;99.90;;;8.90;100.00;97176.91;5239663;28;20262;-66
2023/03/31 02:32:11;;;;;;;6.10;3.25;;;8.10;99.90;;;8.75;100.00;97181.16;5234765;28;20204;-67
2023/03/31 02:34:44;;;;;;;5.50;3.83;;;8.00;99.90;;;8.72;100.00;97158.94;5232695;28;20226;-64
2023/03/31 02:37:18;;;;;;;8.27;3.90;;;8.00;99.90;;;8.68;100.00;97158.72;5229938;28;20208;-66
2023/03/31 02:39:53;;;;;;;6.13;3.97;;;8.00;99.90;;;8.59;100.00;97158.25;5227082;28;20291;-67
2023/03/31 02:42:27;;;;;;;4.00;3.60;;;8.00;99.90;;;8.63;100.00;97157.59;5232082;28;20700;-68
2023/03/31 02:45:05;;;;;;;4.00;3.40;;;8.00;99.90;;;8.71;100.00;97156.34;5228978;28;20482;-66
2023/03/31 02:47:38;;;;;;;5.57;3.77;;;8.10;99.90;;;8.75;100.00;97150.59;5238146;28;20232;-65
2023/03/31 02:50:11;;;;;;;4.23;3.77;;;8.10;99.90;;;8.78;100.00;97141.47;5225022;28;20221;-67
2023/03/31 02:52:57;;;;;;;4.53;4.13;;;8.10;99.90;;;8.86;100.00;97135.88;5232252;28;20196;-67
2023/03/31 02:55:47;;;;;;;5.53;3.93;;;8.20;99.90;;;9.00;100.00;97133.22;5232549;28;20243;-64
2023/03/31 02:58:41;;;;;;;6.30;4.13;;;8.30;99.90;;;9.05;100.00;97127.50;5229931;28;20203;-67
2023/03/31 03:01:38;;;;;;;4.90;3.80;;;8.40;99.90;;;9.31;100.00;97124.59;5234634;28;20197;-67
2023/03/31 03:04:35;;;;;;;7.13;4.30;;;8.60;99.90;;;9.43;100.00;97094.56;5229261;28;20220;-67
2023/03/31 03:11:21;;;;;;;6.10;4.10;;;9.00;99.90;;;9.77;100.00;97060.47;5229985;28;20285;-66
2023/03/31 03:14:06;;;;;;;6.63;3.77;;;9.20;99.90;;;9.83;100.00;97054.78;5232947;28;20232;-66
2023/03/31 03:16:45;;;;;;;8.18;3.85;;;9.30;99.90;;;9.83;100.00;97050.56;5234799;28;20189;-67
2023/03/31 03:19:21;;;;;;;7.78;3.70;;;9.30;99.90;;;9.82;100.00;97043.72;5233533;28;20201;-67
2023/03/31 03:21:54;;;;;;;4.20;3.50;;;9.30;99.90;;;9.74;100.00;97034.81;5224725;28;20205;-67
2023/03/31 03:24:28;;;;;;;5.00;4.07;;;9.30;99.90;;;9.73;100.00;97025.44;5232497;28;20606;-66
2023/03/31 03:27:01;;;;;;;4.03;3.43;;;9.20;99.90;;;9.73;100.00;97022.88;5229706;28;20197;-67
2023/03/31 03:29:35;;;;;;;4.23;3.50;;;9.20;99.90;;;9.71;100.00;97009.16;5234401;28;20653;-67
2023/03/31 03:32:11;;;;;;;4.10;3.70;;;9.20;99.90;;;9.69;100.00;96991.22;5227890;28;20590;-65
2023/03/31 03:34:44;;;;;;;3.67;3.30;;;9.10;99.90;;;9.72;100.00;96985.38;5227486;28;20220;-66
2023/03/31 03:37:17;;;;;;;5.07;3.80;;;9.10;99.90;;;9.72;100.00;96974.31;5230086;28;20224;-67
2023/03/31 03:39:50;;;;;;;5.47;3.70;;;9.10;99.90;;;9.75;100.00;96954.91;5240233;28;20209;-64
2023/03/31 03:42:23;;;;;;;6.00;3.90;;;9.10;99.90;;;9.75;100.00;96954.03;5229866;28;20583;-66
2023/03/31 03:44:56;;;;;;;5.10;3.60;;;9.10;99.90;;;9.76;100.00;96961.78;5230109;28;20889;-66
2023/03/31 03:47:30;;;;;;;5.25;4.03;;;9.10;99.90;;;9.75;100.00;96962.56;5237973;28;20578;-66
2023/03/31 03:50:04;;;;;;;4.28;3.88;;;9.10;99.90;;;9.75;100.00;96960.00;5232760;28;20580;-67
2023/03/31 03:52:38;;;;;;;6.17;4.20;;;9.10;99.90;;;9.76;100.00;96946.47;5228378;28;20204;-67
2023/03/31 03:55:12;;;;;;;5.93;4.13;;;9.10;99.90;;;9.74;100.00;96942.97;5232671;28;20236;-64
2023/03/31 03:57:45;;;;;;;5.82;4.10;;;9.10;99.90;;;9.68;100.00;96932.47;5230923;28;20207;-67
2023/03/31 04:00:19;;;;;;;5.30;3.97;;;9.10;99.90;;;9.71;100.00;96927.50;5235845;28;20580;-66
2023/03/31 04:02:54;;;;;;;7.32;4.10;;;9.10;99.90;;;9.68;100.00;96922.28;5230745;28;20205;-65
2023/03/31 04:05:27;;;;;;;8.43;4.73;;;9.00;99.90;;;9.61;100.00;96916.00;5233134;28;20610;-66
2023/03/31 04:08:00;;;;;;;5.68;3.67;;;9.00;99.90;;;9.67;100.00;96915.41;5230903;28;20223;-67
2023/03/31 04:10:33;;;;;;;5.47;4.30;;;9.00;99.90;;;9.68;100.00;96912.06;5226208;28;20216;-66
2023/03/31 04:13:06;;;;;;;6.15;4.82;;;9.00;99.90;;;9.68;100.00;96901.88;5227646;28;20708;-67
2023/03/31 04:15:39;;;;;;;7.57;4.63;;;9.10;99.90;;;9.66;100.00;96904.34;5233032;28;20692;-66
2023/03/31 04:18:17;;;;;;;6.93;4.30;;;9.10;99.90;;;9.67;100.00;96895.91;5237082;28;20201;-67
2023/03/31 04:20:53;;;;;;;4.80;3.78;;;9.10;99.90;;;9.76;100.00;96889.44;5231417;28;20205;-66
2023/03/31 04:23:26;;;;;;;7.28;4.35;;;9.10;99.90;;;9.77;100.00;96886.09;5224898;28;20204;-66
2023/03/31 04:26:01;;;;;;;4.90;4.50;;;9.10;99.90;;;9.80;100.00;96876.88;5224693;28;21030;-67
2023/03/31 04:28:34;;;;;;;5.93;3.58;;;9.20;99.90;;;9.79;100.00;96869.19;5225288;28;20810;-67
2023/03/31 04:31:09;;;;;;;7.63;4.18;;;9.10;99.90;;;9.76;100.00;96864.81;5227274;28;20221;-67
2023/03/31 04:33:45;;;;;;;5.70;4.03;;;9.10;99.90;;;9.80;100.00;96861.56;5232365;28;20199;-67
2023/03/31 04:36:18;;;;;;;6.35;4.15;;;9.20;99.90;;;9.80;100.00;96838.59;5225778;28;20204;-67
2023/03/31 04:38:53;;;;;;;5.53;4.28;;;9.10;99.90;;;9.82;100.00;96825.94;5225937;28;20213;-67
2023/03/31 04:41:27;;;;;;;6.88;5.03;;;9.10;99.90;;;9.67;100.00;96819.34;5229087;28;20196;-66
2023/03/31 04:44:00;;;;;;;8.70;4.82;;;8.90;99.90;;;9.50;100.00;96824.50;5223665;28;20731;-68
2023/03/31 04:46:33;;;;;;;8.00;4.95;;;8.80;99.90;;;9.49;100.00;96813.44;5226943;28;20201;-67
2023/03/31 04:49:08;;;;;;;7.30;4.43;;;8.70;99.90;;;9.41;100.00;96810.56;5231468;28;20197;-65
2023/03/31 04:51:41;;;;;;;5.55;4.03;;;8.70;99.90;;;9.33;100.00;96817.00;5227188;28;20712;-66
2023/03/31 04:54:14;;;;;;;5.07;4.28;;;8.60;99.90;;;9.32;100.00;96820.31;5233113;28;20597;-66
2023/03/31 04:56:47;;;;;;;5.93;4.03;;;8.60;99.90;;;9.32;100.00;96820.31;5227589;28;20213;-65
2023/03/31 04:59:20;;;;;;;6.63;4.10;;;8.50;99.90;;;9.27;100.00;96820.91;5235778;28;20224;-65
2023/03/31 05:01:53;;;;;;;8.20;4.22;;;8.50;99.90;;;9.23;100.00;96817.38;5238193;28;20199;-67
2023/03/31 05:04:27;;;;;;;6.97;4.32;;;8.50;99.90;;;9.31;100.00;96808.38;5234328;28;20223;-64
2023/03/31 05:07:01;;;;;;;7.93;5.05;;;8.50;99.90;;;9.31;100.00;96808.38;5228846;28;20210;-66
2023/03/31 05:09:34;;;;;;;6.47;4.68;;;8.50;99.90;;;9.32;100.00;96794.81;5234123;28;20193;-65
2023/03/31 05:12:07;;;;;;;5.83;4.40;;;8.50;99.90;;;9.25;100.00;96780.94;5240194;28;20239;-67
2023/03/31 05:14:40;;;;;;;6.93;4.80;;;8.60;99.90;;;9.44;100.00;96790.28;5234433;28;20224;-66
2023/03/31 05:17:13;;;;;;;6.13;4.03;;;8.70;99.90;;;9.48;100.00;96788.75;5230522;28;20201;-67
2023/03/31 05:19:48;;;;;;;5.68;4.20;;;8.80;99.90;;;9.38;100.00;96790.00;5241361;28;20258;-64
2023/03/31 05:22:22;;;;;;;8.40;4.40;;;8.70;99.90;;;9.36;100.00;96799.28;5231620;28;20224;-65
2023/03/31 05:24:55;;;;;;;5.97;4.53;;;8.70;99.90;;;9.39;100.00;96786.66;5234553;28;20732;-66
2023/03/31 05:27:28;;;;;;;5.78;4.95;;;8.60;99.90;;;9.23;100.00;96784.22;5234633;28;20201;-66
2023/03/31 05:30:01;;;;;;;7.00;4.87;;;8.60;99.90;;;9.17;100.00;96789.06;5234770;28;20296;-67
2023/03/31 05:32:35;;;;;;;7.33;5.03;;;8.50;99.90;;;9.12;100.00;96790.53;5232100;28;20689;-67
2023/03/31 05:35:11;;;;;;;7.45;4.93;;;8.50;99.90;;;9.15;100.00;96776.22;5230725;28;20221;-67
2023/03/31 05:37:44;;;;;;;5.63;4.47;;;8.50;99.90;;;9.19;100.00;96793.41;5230106;28;20204;-67
2023/03/31 05:40:17;;;;;;;8.43;5.70;;;8.60;99.90;;;9.22;100.00;96802.88;5234788;28;20209;-67
2023/03/31 05:42:50;;;;;;;6.70;5.65;;;8.60;99.90;;;9.33;100.00;96822.09;5233508;28;20192;-66
2023/03/31 05:45:23;;;;;;;9.53;6.73;;;8.70;99.90;;;9.32;100.00;96830.53;5231114;28;20216;-66
2023/03/31 05:47:56;;;;;;;9.10;5.83;;;8.80;99.90;;;9.32;100.00;96833.06;5232299;28;20208;-66
2023/03/31 05:50:30;;;;;;;10.07;6.47;;;8.80;99.90;;;9.34;100.00;96848.47;5227122;28;20232;-67
2023/03/31 05:53:04;;;;;;;8.93;6.18;;;8.80;99.90;;;9.32;100.00;96843.28;5225362;28;20212;-66
2023/03/31 05:55:37;;;;;;;10.38;6.38;;;8.80;99.90;;;9.31;100.00;96845.78;5233442;28;20271;-67
2023/03/31 05:58:10;;;;;;;7.53;6.47;;;8.80;99.90;;;9.28;100.00;96828.66;5228279;28;20304;-67
2023/03/31 06:00:43;;;;;;;8.83;6.63;;;8.80;99.90;;;9.21;100.00;96826.63;5236388;28;20197;-66
2023/03/31 06:03:17;;;;;;;8.47;5.90;;;8.80;99.90;;;9.22;100.00;96825.84;5230702;28;20192;-67
2023/03/31 06:05:54;;;;;;;6.85;6.15;;;8.80;99.90;;;9.25;100.00;96813.22;5228421;28;20228;-66
2023/03/31 06:08:27;;;;;;;10.63;6.83;;;8.80;99.90;;;9.22;100.00;96803.75;5224493;28;20208;-65
2023/03/31 06:11:01;;;;;;;10.97;6.70;;;8.80;99.90;;;9.20;100.00;96807.03;5239662;28;20213;-66
2023/03/31 06:13:34;;;;;;;11.27;7.37;;;8.80;99.90;;;9.18;100.00;96800.97;5227847;28;20205;-66
2023/03/31 06:16:10;;;;;;;7.10;6.40;;;8.80;99.90;;;9.16;100.00;96783.09;5236055;28;20205;-66
2023/03/31 06:18:43;;;;;;;9.27;6.73;;;8.80;99.90;;;9.22;100.00;96774.84;5233461;28;20201;-66
2023/03/31 06:21:19;;;;;;;8.77;6.47;;;8.80;99.90;;;9.17;100.00;96766.13;5241708;28;20568;-66
2023/03/31 06:23:54;;;;;;;13.47;7.87;;;8.70;99.90;;;9.35;100.00;96758.41;5226837;28;20593;-67
2023/03/31 06:26:28;;;;;;;9.30;7.83;;;8.80;99.90;;;9.29;100.00;96743.69;5229533;28;20219;-66
2023/03/31 06:29:01;;;;;;;8.40;7.50;;;8.80;99.90;;;9.16;100.00;96747.41;5233618;28;20197;-66
2023/03/31 06:31:35;;;;;;;13.55;7.40;;;8.70;99.90;;;9.10;100.00;96747.13;5232987;28;20581;-67
2023/03/31 06:34:08;;;;;;;8.80;7.47;;;8.70;99.90;;;9.12;100.00;96750.59;5242208;28;20246;-66
2023/03/31 06:36:42;;;;;;;9.57;8.57;;;8.70;99.90;;;9.24;100.00;96738.41;5228895;28;20228;-66
2023/03/31 06:39:15;;;;;;;12.13;8.33;;;8.70;99.90;;;9.16;100.00;96727.00;5233238;28;20672;-66
2023/03/31 06:41:48;;;;;;;8.33;7.50;;;8.70;99.90;;;9.12;100.00;96711.50;5226515;28;20300;-66
2023/03/31 06:44:23;;;;;;;10.27;7.93;;;8.60;99.90;;;9.19;100.00;96705.88;5232143;28;20768;-66
2023/03/31 06:46:56;;;;;;;10.27;8.20;;;8.70;99.90;;;9.21;100.00;96692.41;5235390;28;20204;-66
2023/03/31 06:49:29;;;;;;;12.60;9.53;;;8.70;99.90;;;9.17;100.00;96692.19;5229371;28;20311;-67
2023/03/31 06:52:04;;;;;;;12.50;9.43;;;8.80;99.90;;;9.23;100.00;96693.31;5226886;28;20243;-67
2023/03/31 06:54:37;;;;;;;11.60;8.70;;;8.80;99.90;;;9.29;100.00;96696.94;5232705;28;20217;-66
2023/03/31 06:57:10;;;;;;;10.00;9.00;;;8.80;99.90;;;9.33;100.00;96686.94;5223265;28;20198;-66
2023/03/31 06:59:43;;;;;;;10.10;8.63;;;8.90;99.90;;;9.40;100.00;96690.63;5230127;28;20213;-66
2023/03/31 07:02:16;;;;;;;12.20;9.43;;;8.90;99.90;;;9.46;100.00;96691.75;5228486;28;20681;-66
2023/03/31 07:04:49;;;;;;;11.25;9.90;;;9.00;99.90;;;9.46;100.00;96712.16;5234195;28;20238;-67
2023/03/31 07:07:24;;;;;;;13.00;11.57;;;9.00;99.90;;;9.46;100.00;96719.78;5224935;28;20197;-66
2023/03/31 07:09:57;;;;;;;13.70;10.33;;;9.00;99.90;;;9.53;100.00;96727.69;5232129;28;20208;-66
2023/03/31 07:12:33;;;;;;;13.38;10.52;;;9.00;99.90;;;9.57;100.00;96755.09;5235536;28;20212;-66
2023/03/31 07:15:08;;;;;;;57.58;38.10;;;9.10;99.90;;;9.61;100.00;96767.16;5226751;28;20878;-64
2023/03/31 07:17:41;;;;;;;37.60;26.27;;;9.00;99.90;;;9.62;100.00;96780.00;5233040;28;20201;-67
2023/03/31 07:20:16;;;;;;;24.30;20.58;;;9.00;99.90;;;9.58;100.00;96792.56;5227769;28;20201;-67
2023/03/31 07:22:50;;;;;;;20.13;14.63;;;9.00;99.90;;;9.60;100.00;96806.25;5237685;28;20201;-66
2023/03/31 07:25:23;;;;;;;13.75;10.43;;;9.00;99.90;;;9.73;100.00;96811.09;5236526;28;20219;-67
2023/03/31 07:27:56;;;;;;;13.40;12.02;;;8.90;99.90;;;9.72;100.00;96806.78;5227684;28;20227;-67
2023/03/31 07:30:29;;;;;;;12.32;9.02;;;8.90;99.90;;;9.72;100.00;96829.75;5233351;28;20201;-66
2023/03/31 07:33:03;;;;;;;13.07;9.90;;;8.90;99.90;;;9.74;100.00;96805.16;5238264;28;20224;-67
2023/03/31 07:35:38;;;;;;;11.80;8.45;;;9.10;99.90;;;9.83;100.00;96769.81;5234843;28;20212;-65
2023/03/31 07:38:13;;;;;;;9.13;8.23;;;9.20;99.90;;;9.78;100.00;96738.13;5230639;28;20262;-66
2023/03/31 07:40:46;;;;;;;8.05;7.03;;;9.20;99.90;;;9.93;100.00;96751.56;5232078;28;20207;-66
2023/03/31 07:43:33;;;;;;;8.60;7.77;;;9.30;99.90;;;9.95;100.00;96720.09;5233389;28;20223;-67
2023/03/31 07:46:07;;;;;;;9.82;8.60;;;9.50;99.90;;;9.97;100.00;96664.91;5233630;28;20250;-67
2023/03/31 07:48:41;;;;;;;7.70;7.00;;;9.50;99.90;;;9.97;100.00;96675.97;5229707;28;20197;-65
2023/03/31 07:51:15;;;;;;;7.00;5.45;;;9.60;99.90;;;10.07;100.00;96682.31;5236162;28;20209;-67
2023/03/31 07:53:51;;;;;;;8.23;5.70;;;9.70;99.90;;;10.21;100.00;96700.72;5232778;28;20219;-67
2023/03/31 07:56:25;;;;;;;6.80;5.35;;;9.90;99.90;;;10.26;100.00;96706.88;5232657;28;20200;-67
2023/03/31 07:58:58;;;;;;;5.78;5.28;;;10.00;99.90;;;10.23;100.00;96720.41;5233112;28;20576;-67
2023/03/31 08:01:31;;;;;;;5.72;5.22;;;10.00;99.90;;;10.27;100.00;96712.09;5232910;28;20201;-66
2023/03/31 08:04:05;;;;;;;6.87;5.37;;;10.00;99.90;;;10.40;100.00;96717.69;5228823;28;20307;-66
2023/03/31 08:06:38;;;;;;;7.60;4.70;;;10.10;99.90;;;10.36;100.00;96681.81;5230374;28;20625;-66
2023/03/31 08:09:13;;;;;;;5.88;5.35;;;10.10;99.90;;;10.44;100.00;96683.78;5233814;28;20620;-67
2023/03/31 08:11:46;;;;;;;5.22;4.30;;;10.20;99.90;;;10.50;100.00;96679.78;5235382;28;20196;-66
2023/03/31 08:14:20;;;;;;;4.33;3.70;;;10.20;99.90;;;10.51;100.00;96683.22;5228012;28;20656;-67
2023/03/31 08:17:02;;;;;;;5.22;4.82;;;10.30;99.90;;;10.53;100.00;96684.13;5233181;28;20722;-67
2023/03/31 08:19:36;;;;;;;14.50;13.60;;;10.20;99.90;;;10.54;100.00;96678.22;5229534;28;20200;-67
2023/03/31 08:22:09;;;;;;;3.95;3.58;;;10.20;99.90;;;10.65;100.00;96676.06;5225977;28;20197;-67
2023/03/31 08:24:43;;;;;;;5.70;3.70;;;10.30;99.90;;;10.69;100.00;96660.88;5225725;28;20221;-67
2023/03/31 08:27:17;;;;;;;3.83;3.30;;;10.30;99.90;;;10.77;100.00;96659.50;5230952;28;20287;-67
2023/03/31 08:29:50;;;;;;;4.47;4.05;;;10.40;99.90;;;11.03;100.00;96654.44;5232615;28;20207;-67
2023/03/31 08:32:23;;;;;;;4.43;4.13;;;10.70;99.90;;;11.21;100.00;96656.78;5224610;28;20298;-66
2023/03/31 08:34:57;;;;;;;3.60;3.40;;;10.80;99.90;;;11.32;100.00;96669.94;5231118;28;20227;-67
2023/03/31 08:37:30;;;;;;;5.00;4.60;;;10.80;99.90;;;11.32;100.00;96654.59;5226468;28;20665;-66
2023/03/31 08:40:08;;;;;;;8.02;7.32;;;10.80;99.90;;;11.50;100.00;96662.88;5227663;28;20675;-67
2023/03/31 08:42:46;;;;;;;3.88;3.55;;;11.10;99.90;;;11.58;100.00;96661.47;5234714;28;20192;-66
2023/03/31 08:45:24;;;;;;;5.05;3.53;;;11.30;99.90;;;11.84;100.00;96653.78;5220394;28;20244;-67
2023/03/31 08:48:04;;;;;;;5.15;4.75;;;11.60;99.90;;;12.06;100.00;96661.38;5231066;28;20205;-68
2023/03/31 08:50:47;;;;;;;4.03;3.67;;;11.90;99.90;;;12.39;100.00;96653.00;5219204;28;20212;-67
2023/03/31 08:53:26;;;;;;;3.30;3.00;;;12.20;99.90;;;12.63;100.00;96650.28;5228381;28;20307;-66
2023/03/31 08:56:01;;;;;;;3.35;3.15;;;12.40;99.90;;;12.77;100.00;96653.25;5223769;28;20468;-67
2023/03/31 08:58:40;;;;;;;4.03;3.30;;;12.60;99.90;;;12.94;100.00;96659.75;5229687;28;20238;-67
2023/03/31 09:01:24;;;;;;;3.15;2.60;;;12.80;99.90;;;13.08;100.00;96647.31;5228494;28;20205;-67
2023/03/31 09:04:20;;;;;;;2.63;2.42;;;13.00;99.90;;;13.28;100.00;96642.75;5233586;28;20703;-66
2023/03/31 09:07:01;;;;;;;3.10;2.80;;;13.20;99.90;;;13.48;100.00;96644.13;5227377;28;20205;-66
2023/03/31 09:09:46;;;;;;;4.38;3.20;;;13.30;99.90;;;13.71;100.00;96641.28;5229253;28;20201;-67
2023/03/31 09:12:26;;;;;;;3.25;2.58;;;13.50;99.90;;;13.83;97.96;96636.44;5223683;28;20220;-67
2023/03/31 09:15:01;;;;;;;2.45;2.17;;;13.80;99.90;;;13.98;94.59;96635.94;5236683;28;20222;-68
2023/03/31 09:17:41;;;;;;;2.85;2.58;;;13.90;99.90;;;14.16;94.02;96640.63;5226894;28;20665;-67
2023/03/31 09:20:20;;;;;;;2.45;2.25;;;14.10;99.90;;;14.26;93.76;96637.47;5229605;28;20673;-68
2023/03/31 09:23:01;;;;;;;4.03;2.10;;;14.20;99.90;;;14.38;92.45;96630.00;5232516;28;20214;-67
2023/03/31 09:25:40;;;;;;;3.33;2.13;;;14.30;99.90;;;14.47;90.82;96619.06;5225791;28;20216;-67
2023/03/31 09:28:21;;;;;;;2.22;2.00;;;14.40;99.90;;;14.53;89.53;96611.50;5232997;28;20193;-67
2023/03/31 09:30:55;;;;;;;2.10;1.90;;;14.50;99.90;;;14.56;84.27;96614.13;5229277;28;20630;-67
2023/03/31 09:33:31;;;;;;;2.17;1.98;;;14.50;99.90;;;14.63;85.51;96602.31;5226721;28;20528;-67
2023/03/31 09:36:14;;;;;;;2.40;1.80;;;14.50;99.90;;;14.64;85.41;96596.31;5227100;28;20231;-68
2023/03/31 09:38:48;;;;;;;2.67;1.75;;;14.50;99.90;;;14.70;82.67;96587.84;5228888;28;20208;-67
2023/03/31 09:41:21;;;;;;;3.63;2.20;;;14.50;99.90;;;14.80;81.74;96590.66;5233634;28;20564;-66
2023/03/31 09:43:55;;;;;;;1.80;1.65;;;14.60;99.90;;;14.81;80.45;96584.66;5237485;28;20649;-66
2023/03/31 09:46:33;;;;;;;2.55;1.98;;;14.60;99.90;;;14.81;78.71;96576.94;5231537;28;20292;-68
2023/03/31 09:49:14;;;;;;;3.45;2.40;;;14.50;99.90;;;14.80;80.44;96570.06;5230753;28;20204;-68
2023/03/31 09:51:53;;;;;;;1.70;1.60;;;14.50;99.90;;;14.93;80.76;96581.44;5233286;28;20220;-68
2023/03/31 09:54:35;;;;;;;2.10;1.90;;;14.50;99.90;;;14.99;78.84;96580.69;5232395;28;20246;-67
2023/03/31 09:57:24;;;;;;;2.10;1.70;;;14.50;99.90;;;14.94;76.32;96574.63;5238495;28;20732;-68
2023/03/31 10:00:15;;;;;;;3.45;1.88;;;14.40;99.90;;;14.85;75.36;96563.31;5232357;28;20661;-69
2023/03/31 10:02:50;;;;;;;2.08;1.88;;;14.30;99.90;;;14.80;73.27;96579.50;5238995;28;20205;-67
2023/03/31 10:05:30;;;;;;;3.85;1.77;;;14.30;99.90;;;14.74;73.53;96562.25;5238199;28;20224;-68
2023/03/31 10:08:24;;;;;;;2.35;1.70;;;14.30;99.90;;;14.77;70.25;96548.56;5227090;28;20209;-68
2023/03/31 10:11:08;;;;;;;4.35;2.90;;;14.40;99.90;;;14.93;69.38;96552.28;5235993;28;20664;-67
2023/03/31 10:13:47;;;;;;;5.75;3.80;;;14.50;99.90;;;14.76;73.03;96563.09;5231309;28;20201;-67
2023/03/31 10:16:31;;;;;;;4.65;3.10;;;14.40;99.90;;;14.63;71.70;96564.59;5230440;28;20208;-67
2023/03/31 10:19:20;;;;;;;6.65;5.22;;;14.20;99.90;;;14.66;72.05;96565.50;5227726;28;20204;-68
2023/03/31 10:21:59;;;;;;;16.65;9.60;;;14.20;99.90;;;14.54;73.62;96566.13;5235057;28;21741;-68
2023/03/31 10:24:40;;;;;;;21.63;13.55;;;13.90;99.90;;;14.56;73.33;96560.13;5233000;28;20666;-68
2023/03/31 10:27:21;;;;;;;6.47;3.42;;;13.90;99.90;;;14.80;73.12;96541.78;5234258;28;20200;-66
2023/03/31 10:29:56;;;;;;;7.90;6.18;;;14.20;99.90;;;14.95;70.66;96533.47;5235664;28;20614;-67
2023/03/31 10:32:32;;;;;;;3.95;2.55;;;14.50;99.90;;;15.10;64.74;96543.16;5230373;28;20201;-67
2023/03/31 10:35:11;;;;;;;4.28;2.60;;;14.80;99.90;;;15.15;63.62;96543.25;5231822;28;20223;-67
2023/03/31 10:37:44;;;;;;;2.28;1.88;;;14.80;99.90;;;15.30;63.55;96536.66;5236475;28;20196;-67
2023/03/31 10:40:23;;;;;;;4.18;3.45;;;15.00;99.90;;;15.40;64.03;96536.84;5235854;28;20215;-68
2023/03/31 10:43:05;;;;;;;6.65;5.97;;;15.00;99.90;;;15.52;62.69;96526.72;5224843;28;20201;-68
2023/03/31 10:45:43;;;;;;;5.53;2.20;;;15.10;99.90;;;15.70;60.22;96516.72;5227405;28;20217;-67
2023/03/31 10:48:26;;;;;;;4.22;2.15;;;15.30;99.90;;;15.68;58.23;96523.59;5232047;28;20201;-68
2023/03/31 10:51:05;;;;;;;5.72;2.50;;;15.30;99.90;;;15.68;57.58;96510.72;5228674;28;20242;-68
2023/03/31 10:53:44;;;;;;;6.50;4.47;;;15.20;99.90;;;15.67;56.65;96496.03;5230384;28;20320;-67
2023/03/31 10:56:38;;;;;;;5.18;2.70;;;15.20;99.90;;;15.74;55.33;96497.06;5225020;28;20585;-67
2023/03/31 10:59:32;;;;;;;5.22;2.15;;;15.30;99.90;;;15.98;56.93;96475.91;5236277;28;20224;-67
2023/03/31 11:02:35;;;;;;;5.22;2.50;;;15.40;99.90;;;15.98;54.43;96496.53;5226570;28;20200;-66
2023/03/31 11:05:15;;;;;;;4.22;2.25;;;15.40;99.90;;;16.02;52.35;96481.97;5227081;28;20217;-68
2023/03/31 11:08:04;;;;;;;4.00;2.40;;;15.40;99.50;;;16.02;54.62;96482.81;5233070;28;20287;-66
2023/03/31 11:10:58;;;;;;;4.07;2.60;;;15.40;99.90;;;16.14;52.94;96477.84;5226991;28;20292;-65